Time;durP1;ratioP1;P1;durP2;ratioP2;P2;SDS_P1;SDS_P2;PMS_P1;PMS_P2;Temp;Humidity;BMP_temperature;BMP_pressure;BME280_temperature;BME280_humidity;BME280_pressure;Samples;Min_cycle;Max_cycle;Signal;HPM_P1;HPM_P2
2022/07/21 00:02:16;;;;;;;13.05;8.40;;;21.10;99.90;;;;;;5094458;28;20036;-69
2022/07/21 00:04:42;;;;;;;14.80;7.97;;;20.90;99.90;;;;;;5112244;28;20032;-70
2022/07/21 00:07:08;;;;;;;11.57;8.30;;;20.90;99.90;;;;;;5094403;28;20130;-69
2022/07/21 00:09:35;;;;;;;15.32;10.15;;;20.70;99.90;;;;;;5112465;28;20043;-70
2022/07/21 00:12:02;;;;;;;15.85;9.15;;;21.50;99.90;;;;;;5112346;28;20078;-70
2022/07/21 00:14:27;;;;;;;17.10;8.88;;;20.50;99.90;;;;;;5112002;28;20044;-70
2022/07/21 00:16:53;;;;;;;16.23;9.50;;;21.90;99.90;;;;;;5077153;28;20119;-69
2022/07/21 00:19:19;;;;;;;16.90;8.80;;;21.20;99.90;;;;;;5094129;28;20562;-70
2022/07/21 00:21:44;;;;;;;20.58;9.07;;;20.70;99.90;;;;;;5094173;28;20031;-70
2022/07/21 00:24:10;;;;;;;14.20;8.75;;;21.60;99.90;;;;;;5093832;28;20035;-69
2022/07/21 00:26:35;;;;;;;13.82;10.27;;;20.50;99.90;;;;;;5093940;28;20040;-70
2022/07/21 00:29:01;;;;;;;12.52;7.85;;;20.60;99.90;;;;;;5094184;28;20047;-69
2022/07/21 00:31:27;;;;;;;15.40;9.80;;;20.70;99.90;;;;;;5095961;28;20043;-69
2022/07/21 00:33:52;;;;;;;13.77;9.10;;;20.50;99.90;;;;;;5080956;28;20032;-68
2022/07/21 00:36:19;;;;;;;19.95;9.30;;;20.40;99.90;;;;;;5097972;28;20507;-69
2022/07/21 00:38:45;;;;;;;14.10;8.98;;;20.30;99.90;;;;;;5116370;28;20042;-69
2022/07/21 00:41:10;;;;;;;16.10;9.60;;;20.20;99.90;;;;;;5097928;28;20126;-69
2022/07/21 00:43:36;;;;;;;13.13;8.75;;;20.70;99.90;;;;;;5116147;28;20506;-69
2022/07/21 00:46:01;;;;;;;12.68;9.65;;;20.40;99.90;;;;;;5097848;28;20047;-69
2022/07/21 00:48:27;;;;;;;14.82;9.55;;;20.60;99.90;;;;;;5116106;28;20122;-69
2022/07/21 00:50:53;;;;;;;15.38;9.75;;;20.50;99.90;;;;;;5080842;28;20412;-69
2022/07/21 00:53:18;;;;;;;15.02;10.95;;;21.20;99.90;;;;;;5097421;28;20461;-70
2022/07/21 00:55:46;;;;;;;13.93;9.77;;;20.40;99.90;;;;;;5115778;28;20048;-69
2022/07/21 00:58:12;;;;;;;16.88;10.63;;;20.40;99.90;;;;;;5097573;28;20043;-69
2022/07/21 01:00:38;;;;;;;15.10;10.52;;;20.30;99.90;;;;;;5097910;28;20093;-69
2022/07/21 01:03:03;;;;;;;20.77;11.88;;;20.80;99.90;;;;;;5115770;28;20063;-69
2022/07/21 01:05:29;;;;;;;18.45;11.70;;;20.90;99.90;;;;;;5097241;28;20071;-69
2022/07/21 01:07:58;;;;;;;14.90;10.90;;;20.80;99.90;;;;;;5097822;28;20051;-69
2022/07/21 01:10:24;;;;;;;16.10;10.50;;;20.30;99.90;;;;;;5115816;28;20050;-70
2022/07/21 01:12:50;;;;;;;21.52;12.38;;;20.40;99.90;;;;;;5115789;28;20035;-69
2022/07/21 01:15:18;;;;;;;15.85;10.25;;;20.20;99.90;;;;;;5115509;28;20493;-69
2022/07/21 01:17:45;;;;;;;15.70;12.20;;;20.30;99.90;;;;;;5114632;28;20036;-69
2022/07/21 01:20:14;;;;;;;21.42;12.10;;;20.40;99.90;;;;;;5115968;28;20046;-69
2022/07/21 01:22:41;;;;;;;16.98;12.60;;;20.20;99.90;;;;;;5115596;28;20039;-70
2022/07/21 01:25:08;;;;;;;21.45;13.40;;;20.30;99.90;;;;;;5080250;28;20374;-70
2022/07/21 01:27:34;;;;;;;18.00;12.35;;;20.20;99.90;;;;;;5115426;28;20035;-69
2022/07/21 01:30:00;;;;;;;20.33;13.25;;;22.30;99.90;;;;;;5097061;28;20044;-69
2022/07/21 01:32:26;;;;;;;18.38;12.93;;;20.20;99.90;;;;;;5115177;28;20036;-70
2022/07/21 01:34:52;;;;;;;18.42;13.00;;;20.10;99.90;;;;;;5096594;28;20039;-70
2022/07/21 01:37:22;;;;;;;19.02;12.85;;;20.00;99.90;;;;;;5096824;28;20031;-70
2022/07/21 01:42:36;;;;;;;19.80;13.27;;;21.60;99.90;;;;;;5114151;28;20157;-69
2022/07/21 01:45:03;;;;;;;20.05;12.75;;;19.90;99.90;;;;;;5096641;28;20075;-70
2022/07/21 01:47:29;;;;;;;20.35;14.10;;;20.20;99.90;;;;;;5114915;28;20493;-70
2022/07/21 01:49:54;;;;;;;17.98;13.57;;;20.00;99.90;;;;;;5096754;28;20031;-70
2022/07/21 01:52:20;;;;;;;18.70;13.68;;;20.70;99.90;;;;;;5096592;28;20454;-70
2022/07/21 01:54:45;;;;;;;22.88;14.30;;;20.20;99.90;;;;;;5096326;28;20039;-70
2022/07/21 01:57:11;;;;;;;22.45;14.60;;;21.00;99.90;;;;;;5096738;28;20058;-70
2022/07/21 01:59:37;;;;;;;17.40;12.30;;;20.20;99.90;;;;;;5096618;28;20036;-70
2022/07/21 02:02:02;;;;;;;17.48;14.02;;;20.80;99.90;;;;;;5096640;28;20070;-69
2022/07/21 02:04:28;;;;;;;21.92;14.48;;;20.00;99.90;;;;;;5114506;28;20039;-71
2022/07/21 02:06:54;;;;;;;18.23;14.60;;;19.70;99.90;;;;;;5096223;28;20048;-70
2022/07/21 02:09:20;;;;;;;20.30;14.68;;;20.10;99.90;;;;;;5096286;28;20065;-70
2022/07/21 02:11:45;;;;;;;22.30;16.05;;;19.80;99.90;;;;;;5096668;28;20047;-70
2022/07/21 02:14:11;;;;;;;20.23;14.90;;;20.20;99.90;;;;;;5095684;28;20047;-70
2022/07/21 02:16:37;;;;;;;26.83;16.45;;;19.90;99.90;;;;;;5096267;28;20118;-70
2022/07/21 02:19:03;;;;;;;19.52;13.68;;;20.90;99.90;;;;;;5114664;28;20039;-70
2022/07/21 02:21:28;;;;;;;18.33;13.65;;;19.90;99.90;;;;;;5115026;28;20045;-69
2022/07/21 02:23:54;;;;;;;19.77;15.05;;;20.90;99.90;;;;;;5095134;28;20051;-69
2022/07/21 02:26:20;;;;;;;19.92;15.05;;;19.90;99.90;;;;;;5079082;28;20416;-69
2022/07/21 02:28:45;;;;;;;19.42;13.95;;;20.00;99.90;;;;;;5095821;28;20408;-70
2022/07/21 02:31:11;;;;;;;19.20;15.23;;;21.00;99.90;;;;;;5079292;28;20097;-70
2022/07/21 02:33:37;;;;;;;17.58;13.60;;;19.90;99.90;;;;;;5078801;28;20074;-70
2022/07/21 02:36:03;;;;;;;19.02;14.40;;;19.90;99.90;;;;;;5095445;28;20038;-72
2022/07/21 02:38:28;;;;;;;19.27;13.65;;;20.00;99.90;;;;;;5095655;28;20043;-72
2022/07/21 02:40:54;;;;;;;17.25;13.60;;;21.10;99.90;;;;;;5095954;28;20031;-72
2022/07/21 02:43:20;;;;;;;20.40;15.23;;;20.00;99.90;;;;;;5095569;28;20070;-72
2022/07/21 02:45:45;;;;;;;19.10;14.02;;;19.70;99.90;;;;;;5078421;28;20036;-72
2022/07/21 02:48:12;;;;;;;22.88;15.48;;;20.50;99.90;;;;;;5113995;28;20105;-72
2022/07/21 02:50:42;;;;;;;23.30;15.80;;;19.70;99.90;;;;;;5113896;28;20454;-72
2022/07/21 02:53:19;;;;;;;18.98;14.90;;;19.70;99.90;;;;;;5110291;22;20041;-70
2022/07/21 02:55:50;;;;;;;18.55;14.23;;;20.00;99.90;;;;;;5070527;28;20178;-70
2022/07/21 02:58:24;;;;;;;21.58;15.50;;;19.90;99.90;;;;;;5071644;28;20037;-70
2022/07/21 03:00:59;;;;;;;19.27;14.63;;;19.90;99.90;;;;;;5072592;28;20041;-70
2022/07/21 03:03:28;;;;;;;20.23;15.82;;;20.70;99.90;;;;;;5079624;28;20036;-70
2022/07/21 03:05:54;;;;;;;18.83;15.27;;;19.90;99.90;;;;;;5092503;28;20036;-70
2022/07/21 03:08:21;;;;;;;17.98;15.50;;;20.10;99.90;;;;;;5074844;28;20453;-70
2022/07/21 03:10:47;;;;;;;21.20;14.32;;;19.90;99.90;;;;;;5074430;28;20039;-70
2022/07/21 03:13:13;;;;;;;20.13;15.55;;;20.10;99.90;;;;;;5074406;28;20042;-69
2022/07/21 03:15:39;;;;;;;20.30;15.55;;;20.10;99.90;;;;;;5073900;28;20028;-70
2022/07/21 03:18:05;;;;;;;16.88;14.80;;;20.00;99.90;;;;;;5092940;28;20101;-70
2022/07/21 03:20:33;;;;;;;18.83;15.10;;;20.00;99.90;;;;;;5074167;28;20043;-70
2022/07/21 03:22:59;;;;;;;17.60;13.38;;;20.10;99.90;;;;;;5092462;28;20115;-70
2022/07/21 03:25:26;;;;;;;18.65;14.43;;;20.10;99.90;;;;;;5057515;28;20540;-70
2022/07/21 03:27:51;;;;;;;24.13;16.95;;;19.90;99.90;;;;;;5074125;28;20105;-70
2022/07/21 03:30:17;;;;;;;21.77;15.65;;;20.50;99.90;;;;;;5073965;28;20432;-70
2022/07/21 03:32:43;;;;;;;23.38;17.13;;;20.10;99.90;;;;;;5074067;28;20036;-69
2022/07/21 03:35:11;;;;;;;21.98;17.20;;;19.90;99.90;;;;;;5091956;28;20173;-70
2022/07/21 03:37:45;;;;;;;23.00;17.80;;;19.80;99.90;;;;;;5092410;28;20317;-69
2022/07/21 03:40:13;;;;;;;24.15;16.75;;;19.80;99.90;;;;;;5074278;28;20513;-69
2022/07/21 03:42:39;;;;;;;24.23;17.00;;;20.20;99.90;;;;;;5092060;28;20069;-70
2022/07/21 03:45:06;;;;;;;21.77;16.50;;;21.00;99.90;;;;;;5090451;28;20528;-69
2022/07/21 03:47:32;;;;;;;21.95;17.40;;;19.90;99.90;;;;;;5057364;28;20036;-71
2022/07/21 03:49:57;;;;;;;22.73;15.70;;;19.60;99.90;;;;;;5073885;28;20558;-71
2022/07/21 03:52:23;;;;;;;21.33;17.17;;;20.10;99.90;;;;;;5073815;28;20126;-69
2022/07/21 03:54:48;;;;;;;23.60;17.48;;;19.90;99.90;;;;;;5091321;28;20039;-70
2022/07/21 03:57:14;;;;;;;22.17;18.30;;;19.90;99.90;;;;;;5073742;28;20039;-71
2022/07/21 03:59:39;;;;;;;26.58;18.08;;;20.10;99.90;;;;;;5073789;28;20229;-69
2022/07/21 04:02:05;;;;;;;24.13;19.52;;;20.10;99.90;;;;;;5091912;28;20136;-70
2022/07/21 04:04:30;;;;;;;23.58;18.60;;;19.80;99.90;;;;;;5091489;28;20493;-69
2022/07/21 04:06:56;;;;;;;23.27;18.08;;;19.90;99.90;;;;;;5073046;28;20570;-69
2022/07/21 04:09:22;;;;;;;23.60;19.98;;;20.10;99.90;;;;;;5073861;28;20040;-69
2022/07/21 04:11:47;;;;;;;23.17;17.58;;;19.90;99.90;;;;;;5091479;28;20036;-69
2022/07/21 04:14:14;;;;;;;19.40;14.30;;;19.90;99.90;;;;;;5073342;28;20127;-70
2022/07/21 04:16:40;;;;;;;21.40;17.48;;;20.00;99.90;;;;;;5073585;28;20039;-70
2022/07/21 04:19:05;;;;;;;21.23;16.08;;;19.90;99.90;;;;;;5073500;28;20042;-72
2022/07/21 04:21:31;;;;;;;23.75;17.20;;;19.80;99.90;;;;;;5073382;28;20042;-69
2022/07/21 04:23:56;;;;;;;19.75;14.98;;;19.70;99.90;;;;;;5091172;28;20044;-69
2022/07/21 04:26:22;;;;;;;20.20;16.33;;;19.80;99.90;;;;;;5091408;28;20043;-69
2022/07/21 04:28:48;;;;;;;19.27;16.92;;;20.60;99.90;;;;;;5073570;28;20048;-72
2022/07/21 04:31:13;;;;;;;20.02;15.48;;;19.80;99.90;;;;;;5073580;28;20044;-69
2022/07/21 04:33:39;;;;;;;20.90;14.93;;;19.80;99.90;;;;;;5056430;28;20093;-69
2022/07/21 04:36:05;;;;;;;20.35;16.05;;;19.70;99.90;;;;;;5091140;28;20072;-70
2022/07/21 04:38:30;;;;;;;18.40;14.95;;;19.70;99.90;;;;;;5073365;28;20409;-72
2022/07/21 04:40:56;;;;;;;20.83;16.55;;;19.70;99.90;;;;;;5073212;28;20040;-70
2022/07/21 04:43:21;;;;;;;19.20;14.50;;;19.70;99.90;;;;;;5073173;28;20097;-70
2022/07/21 04:45:47;;;;;;;16.95;14.30;;;19.70;99.90;;;;;;5072903;28;20427;-70
2022/07/21 04:48:12;;;;;;;19.00;15.27;;;19.80;99.90;;;;;;5091338;28;20032;-70
2022/07/21 04:50:38;;;;;;;19.88;15.93;;;19.60;99.90;;;;;;5056722;28;20039;-70
2022/07/21 04:53:04;;;;;;;22.55;17.83;;;19.70;99.90;;;;;;5073229;28;20123;-70
2022/07/21 04:55:29;;;;;;;22.05;16.30;;;19.60;99.90;;;;;;5072720;28;20085;-70
2022/07/21 04:57:57;;;;;;;19.45;16.13;;;19.60;99.90;;;;;;5073088;28;20074;-70
2022/07/21 05:00:24;;;;;;;20.00;14.75;;;19.70;99.90;;;;;;5073334;28;20040;-70
2022/07/21 05:02:51;;;;;;;18.63;14.05;;;19.70;99.90;;;;;;5072908;28;20083;-69
2022/07/21 05:05:17;;;;;;;18.90;16.20;;;20.10;99.90;;;;;;5072988;28;20036;-69
2022/07/21 05:07:43;;;;;;;21.65;17.10;;;19.60;99.90;;;;;;5091095;28;20494;-69
2022/07/21 05:10:12;;;;;;;23.83;16.77;;;19.50;99.90;;;;;;5073112;28;20036;-70
2022/07/21 05:12:38;;;;;;;18.80;14.98;;;19.60;99.90;;;;;;5072816;28;20529;-70
2022/07/21 05:15:06;;;;;;;20.35;16.13;;;19.70;99.90;;;;;;5090904;28;20040;-70
2022/07/21 05:17:31;;;;;;;19.35;16.23;;;20.30;99.90;;;;;;5073083;28;20087;-70
2022/07/21 05:19:58;;;;;;;20.88;16.25;;;19.50;99.90;;;;;;5094971;28;20064;-70
2022/07/21 05:22:24;;;;;;;20.50;16.50;;;19.40;99.90;;;;;;5076899;28;20050;-70
2022/07/21 05:24:50;;;;;;;21.88;18.30;;;19.60;99.90;;;;;;5076159;28;20047;-70
2022/07/21 05:27:15;;;;;;;19.65;17.48;;;19.50;99.90;;;;;;5076449;28;20067;-71
2022/07/21 05:29:41;;;;;;;22.83;17.85;;;19.40;99.90;;;;;;5076722;28;20047;-71
2022/07/21 05:32:07;;;;;;;20.77;16.58;;;19.60;99.90;;;;;;5076613;28;20036;-70
2022/07/21 05:34:32;;;;;;;25.25;18.60;;;19.50;99.90;;;;;;5094031;28;20032;-70
2022/07/21 05:36:58;;;;;;;22.25;18.05;;;19.60;99.90;;;;;;5094511;28;20047;-70
2022/07/21 05:39:23;;;;;;;20.88;16.80;;;17.30;99.90;;;;;;5076177;28;20403;-73
2022/07/21 05:41:49;;;;;;;23.35;18.35;;;19.70;99.90;;;;;;5076214;28;20047;-70
2022/07/21 05:44:14;;;;;;;21.58;17.73;;;20.10;99.90;;;;;;5094081;28;20039;-70
2022/07/21 05:46:40;;;;;;;21.27;18.25;;;19.70;99.90;;;;;;5076147;28;20043;-71
2022/07/21 05:49:06;;;;;;;20.90;17.58;;;19.50;99.90;;;;;;5076333;28;20035;-70
2022/07/21 05:51:31;;;;;;;23.98;18.50;;;19.40;99.90;;;;;;5094236;28;20032;-70
2022/07/21 05:53:57;;;;;;;23.95;19.55;;;20.20;99.90;;;;;;5075365;28;20032;-70
2022/07/21 05:56:22;;;;;;;23.83;19.20;;;19.50;99.90;;;;;;5094285;28;20463;-72
2022/07/21 05:58:48;;;;;;;23.73;17.80;;;19.40;99.90;;;;;;5076084;28;20114;-70
2022/07/21 06:01:15;;;;;;;23.98;18.48;;;19.50;99.90;;;;;;5059161;28;20036;-70
2022/07/21 06:03:46;;;;;;;22.83;17.35;;;20.10;99.90;;;;;;5075534;28;20535;-70
2022/07/21 06:06:13;;;;;;;23.02;17.85;;;19.70;99.90;;;;;;5093901;28;20112;-71
2022/07/21 06:08:40;;;;;;;23.98;18.13;;;19.60;99.90;;;;;;5075717;28;20048;-70
2022/07/21 06:11:11;;;;;;;22.45;16.60;;;19.60;99.90;;;;;;5093573;28;20443;-69
2022/07/21 06:13:37;;;;;;;23.75;18.23;;;19.70;99.90;;;;;;5092191;28;20044;-69
2022/07/21 06:16:04;;;;;;;22.42;17.70;;;19.60;99.90;;;;;;5079749;28;20078;-68
2022/07/21 06:18:29;;;;;;;22.02;16.80;;;19.70;99.90;;;;;;5087430;28;20668;-69
2022/07/21 06:20:55;;;;;;;22.15;18.25;;;19.70;99.90;;;;;;5067583;28;20032;-70
2022/07/21 06:23:21;;;;;;;24.08;18.25;;;19.90;99.90;;;;;;5071787;28;20032;-70
2022/07/21 06:25:47;;;;;;;23.85;17.83;;;19.70;99.90;;;;;;5089515;28;20068;-70
2022/07/21 06:28:13;;;;;;;22.90;19.30;;;19.90;99.90;;;;;;5071483;28;20079;-69
2022/07/21 06:30:39;;;;;;;19.02;14.90;;;19.90;99.90;;;;;;5071593;28;20044;-70
2022/07/21 06:33:04;;;;;;;20.92;18.02;;;19.80;99.90;;;;;;5071939;28;20027;-70
2022/07/21 06:35:30;;;;;;;23.33;20.02;;;20.10;99.90;;;;;;5070975;28;20082;-69
2022/07/21 06:37:55;;;;;;;21.67;19.30;;;19.90;99.90;;;;;;5071429;28;20173;-69
2022/07/21 06:40:21;;;;;;;21.25;18.10;;;20.10;99.90;;;;;;5089577;28;20035;-70
2022/07/21 06:42:47;;;;;;;27.85;21.30;;;20.10;99.90;;;;;;5068963;28;20125;-69
2022/07/21 06:45:13;;;;;;;23.35;19.92;;;20.10;99.90;;;;;;5071967;28;20135;-69
2022/07/21 06:47:38;;;;;;;23.27;18.23;;;19.90;99.90;;;;;;5063574;28;20145;-71
2022/07/21 06:50:04;;;;;;;23.30;18.90;;;20.00;99.90;;;;;;5056871;28;20043;-71
2022/07/21 06:52:32;;;;;;;23.02;19.25;;;20.00;99.90;;;;;;5088085;28;20043;-70
2022/07/21 06:54:57;;;;;;;27.52;20.88;;;20.10;99.90;;;;;;5092249;28;20031;-73
2022/07/21 06:57:23;;;;;;;19.75;16.88;;;20.10;99.90;;;;;;5092434;28;20127;-71
2022/07/21 06:59:49;;;;;;;23.90;19.85;;;20.30;99.90;;;;;;5074742;28;20486;-72
2022/07/21 07:02:15;;;;;;;23.58;18.45;;;20.30;99.90;;;;;;5074326;28;20040;-72
2022/07/21 07:04:41;;;;;;;24.67;20.35;;;20.40;99.90;;;;;;5074904;28;20043;-71
2022/07/21 07:07:07;;;;;;;24.33;18.20;;;20.20;99.90;;;;;;5075170;28;20550;-73
2022/07/21 07:09:32;;;;;;;24.80;20.25;;;21.10;99.90;;;;;;5074715;28;20043;-71
2022/07/21 07:12:03;;;;;;;23.48;20.15;;;20.70;99.90;;;;;;5074465;28;20040;-72
2022/07/21 07:14:29;;;;;;;24.73;20.08;;;20.40;99.90;;;;;;5074226;28;20401;-71
2022/07/21 07:16:55;;;;;;;22.15;19.30;;;20.50;99.90;;;;;;5084541;28;20036;-72
2022/07/21 07:19:21;;;;;;;25.20;21.08;;;20.20;99.90;;;;;;5044940;28;20040;-73
2022/07/21 07:21:46;;;;;;;23.08;19.55;;;20.20;99.90;;;;;;5082859;28;20040;-72
2022/07/21 07:24:12;;;;;;;29.90;22.25;;;20.10;99.90;;;;;;5067309;28;20485;-72
2022/07/21 07:26:38;;;;;;;25.95;21.15;;;20.20;99.90;;;;;;5038016;28;20155;-72
2022/07/21 07:29:03;;;;;;;24.23;19.17;;;20.20;99.90;;;;;;5089759;28;20520;-71
2022/07/21 07:31:29;;;;;;;23.35;19.80;;;20.40;99.90;;;;;;5092466;28;20132;-72
2022/07/21 07:33:57;;;;;;;27.95;23.38;;;20.10;99.90;;;;;;5073434;28;20140;-71
2022/07/21 07:36:26;;;;;;;29.30;23.92;;;20.20;99.90;;;;;;5092244;28;20055;-72
2022/07/21 07:38:53;;;;;;;24.70;21.45;;;20.80;99.90;;;;;;5057121;28;20116;-72
2022/07/21 07:41:20;;;;;;;20.90;18.00;;;20.10;99.90;;;;;;5091650;28;20123;-73
2022/07/21 07:43:46;;;;;;;29.35;22.40;;;20.50;99.90;;;;;;5091634;28;20039;-71
2022/07/21 07:46:12;;;;;;;25.95;22.55;;;20.00;99.90;;;;;;5091774;28;20044;-72
2022/07/21 07:48:40;;;;;;;27.77;23.75;;;19.90;99.90;;;;;;5070258;28;20121;-72
2022/07/21 07:51:06;;;;;;;28.77;23.77;;;20.60;99.90;;;;;;5071573;28;20105;-72
2022/07/21 07:53:31;;;;;;;28.50;23.70;;;19.90;99.90;;;;;;5053211;28;20528;-72
2022/07/21 07:55:57;;;;;;;29.80;23.58;;;20.50;99.90;;;;;;5071711;28;20037;-72
2022/07/21 07:58:23;;;;;;;30.25;23.63;;;20.10;99.90;;;;;;5053506;28;20085;-72
2022/07/21 08:00:49;;;;;;;31.42;24.02;;;19.90;99.90;;;;;;5053604;28;20504;-72
2022/07/21 08:03:14;;;;;;;38.65;25.10;;;20.90;99.90;;;;;;5071582;28;20429;-72
2022/07/21 08:05:40;;;;;;;31.45;23.85;;;20.30;99.90;;;;;;5053265;28;20037;-72
2022/07/21 08:08:06;;;;;;;31.08;25.50;;;20.30;99.90;;;;;;5053269;28;20106;-72
2022/07/21 08:10:31;;;;;;;31.40;25.85;;;20.20;99.90;;;;;;5058268;28;20100;-72
2022/07/21 08:12:57;;;;;;;30.05;24.25;;;20.20;99.90;;;;;;5073581;28;20158;-72
2022/07/21 08:15:22;;;;;;;26.45;21.33;;;19.90;99.90;;;;;;5091221;28;20028;-73
2022/07/21 08:17:48;;;;;;;26.55;22.17;;;20.20;99.90;;;;;;5091539;28;20096;-72
2022/07/21 08:20:14;;;;;;;26.77;23.15;;;20.60;99.90;;;;;;5091503;28;20032;-71
2022/07/21 08:22:39;;;;;;;33.03;23.85;;;20.30;99.90;;;;;;5091336;28;20035;-72
2022/07/21 08:25:05;;;;;;;30.90;23.58;;;20.80;99.90;;;;;;5073051;28;20040;-71
2022/07/21 08:27:31;;;;;;;32.22;25.60;;;20.00;99.90;;;;;;5056699;28;20504;-72
2022/07/21 08:29:57;;;;;;;34.65;27.05;;;19.90;99.90;;;;;;5073272;28;20105;-71
2022/07/21 08:32:22;;;;;;;30.25;24.42;;;20.10;99.90;;;;;;5073241;28;20043;-72
2022/07/21 08:34:48;;;;;;;30.05;24.70;;;20.00;99.90;;;;;;5072700;28;20105;-72
2022/07/21 08:37:14;;;;;;;29.40;23.73;;;20.10;99.90;;;;;;5073078;28;20040;-73
2022/07/21 08:39:40;;;;;;;34.72;27.77;;;21.10;99.90;;;;;;5091499;28;20047;-73
2022/07/21 08:42:07;;;;;;;35.25;27.75;;;20.00;99.90;;;;;;5073377;28;20040;-71
2022/07/21 08:44:33;;;;;;;34.97;28.70;;;19.90;99.90;;;;;;5091256;28;20040;-72
2022/07/21 08:46:59;;;;;;;31.98;26.95;;;19.90;99.90;;;;;;5091329;28;20043;-71
2022/07/21 08:49:26;;;;;;;33.80;26.27;;;19.80;99.90;;;;;;5056272;28;20036;-72
2022/07/21 08:51:52;;;;;;;32.53;25.50;;;19.90;99.90;;;;;;5073982;28;20043;-71
2022/07/21 08:54:22;;;;;;;34.60;27.77;;;19.90;99.90;;;;;;5145215;22;20087;-78
2022/07/21 08:56:49;;;;;;;37.30;28.92;;;19.80;99.90;;;;;;5115881;28;20032;-78
2022/07/21 08:59:15;;;;;;;33.10;27.88;;;20.00;99.90;;;;;;5107599;28;20031;-79
2022/07/21 09:01:40;;;;;;;44.22;33.80;;;20.00;99.90;;;;;;5108182;28;20046;-79
2022/07/21 09:04:26;;;;;;;46.83;35.30;;;20.10;99.90;;;;;;5101770;28;20396;-78
2022/07/21 09:07:03;;;;;;;40.50;31.73;;;20.10;99.90;;;;;;5101103;28;20074;-79
2022/07/21 09:09:30;;;;;;;33.25;28.25;;;20.10;99.90;;;;;;5102298;28;20047;-78
2022/07/21 09:11:56;;;;;;;45.22;34.63;;;20.00;99.90;;;;;;5085079;28;20040;-78
2022/07/21 09:14:25;;;;;;;35.90;30.30;;;20.00;99.90;;;;;;5063812;28;20055;-78
2022/07/21 09:16:57;;;;;;;41.63;32.40;;;19.90;99.90;;;;;;5064444;28;20048;-78
2022/07/21 09:19:35;;;;;;;46.22;35.80;;;20.10;99.90;;;;;;5080035;28;20067;-78
2022/07/21 09:22:03;;;;;;;40.38;33.58;;;20.40;99.90;;;;;;5062791;28;20047;-78
2022/07/21 09:24:37;;;;;;;46.15;38.00;;;20.10;99.90;;;;;;5098514;28;20043;-78
2022/07/21 09:27:05;;;;;;;51.38;40.35;;;20.40;99.90;;;;;;5080847;28;20051;-78
2022/07/21 09:29:40;;;;;;;47.15;35.80;;;20.30;99.90;;;;;;5079734;28;20075;-78
2022/07/21 09:32:26;;;;;;;48.03;37.50;;;20.20;99.90;;;;;;5081686;28;20489;-78
2022/07/21 09:34:58;;;;;;;51.13;40.47;;;20.40;99.90;;;;;;5098705;28;20489;-78
2022/07/21 09:37:24;;;;;;;56.17;43.28;;;21.60;99.90;;;;;;5098169;28;20082;-77
2022/07/21 09:39:59;;;;;;;51.95;39.25;;;21.70;99.90;;;;;;5081873;28;20032;-78
2022/07/21 09:42:26;;;;;;;51.72;39.13;;;20.40;99.90;;;;;;5106051;28;20033;-78
2022/07/21 09:44:54;;;;;;;42.05;33.95;;;20.50;99.90;;;;;;5086876;28;20040;-79
2022/07/21 09:47:22;;;;;;;48.42;36.67;;;20.40;99.90;;;;;;5088127;28;20044;-78
2022/07/21 09:49:48;;;;;;;56.47;39.80;;;21.20;99.90;;;;;;5086675;28;20039;-79
2022/07/21 09:52:33;;;;;;;41.50;34.08;;;21.30;99.90;;;;;;5086603;28;20495;-79
2022/07/21 09:55:05;;;;;;;43.03;32.85;;;21.50;99.90;;;;;;5086281;28;20046;-79
2022/07/21 09:57:31;;;;;;;40.20;30.63;;;20.20;99.90;;;;;;5106854;28;20043;-79
2022/07/21 09:59:58;;;;;;;36.50;28.25;;;21.50;99.90;;;;;;5105857;28;20522;-79
2022/07/21 10:02:25;;;;;;;26.98;24.05;;;21.20;99.90;;;;;;5088044;28;20032;-79
2022/07/21 10:04:59;;;;;;;27.13;23.20;;;21.20;99.90;;;;;;5088731;28;20044;-79
2022/07/21 10:07:27;;;;;;;29.92;24.38;;;20.50;99.90;;;;;;5073804;28;20040;-79
2022/07/21 10:09:53;;;;;;;27.63;21.65;;;20.70;99.90;;;;;;5089911;28;20070;-79
2022/07/21 10:12:20;;;;;;;27.05;23.40;;;20.50;99.90;;;;;;5109203;28;20061;-79
2022/07/21 10:14:46;;;;;;;25.63;21.77;;;20.70;99.90;;;;;;5110551;28;20058;-79
2022/07/21 10:17:17;;;;;;;28.08;21.80;;;21.40;99.90;;;;;;5112677;28;20043;-79
2022/07/21 10:19:49;;;;;;;22.40;18.77;;;20.70;99.90;;;;;;5113949;28;20039;-79
2022/07/21 10:22:44;;;;;;;18.60;15.40;;;20.80;99.90;;;;;;5110104;28;20061;-79
2022/07/21 10:25:10;;;;;;;14.95;12.32;;;21.00;99.90;;;;;;5114983;28;20044;-79
2022/07/21 10:27:36;;;;;;;15.48;13.02;;;21.50;99.90;;;;;;5116715;28;20042;-79
2022/07/21 10:30:06;;;;;;;13.82;12.27;;;20.70;99.90;;;;;;5112056;28;20043;-79
2022/07/21 10:32:37;;;;;;;15.07;12.13;;;21.00;99.90;;;;;;5114869;28;20032;-80
2022/07/21 10:35:31;;;;;;;13.05;11.73;;;21.10;99.90;;;;;;5110024;28;20497;-80
2022/07/21 10:37:58;;;;;;;14.20;12.77;;;20.90;99.90;;;;;;5124283;28;20039;-82
2022/07/21 10:40:24;;;;;;;14.38;11.90;;;22.30;99.90;;;;;;5120585;28;20040;-77
2022/07/21 10:42:58;;;;;;;14.73;12.15;;;21.00;99.90;;;;;;5125438;28;20036;-77
2022/07/21 10:45:38;;;;;;;12.13;10.93;;;20.90;99.90;;;;;;5130155;28;20035;-77
2022/07/21 10:48:28;;;;;;;16.48;11.48;;;21.40;99.90;;;;;;5106718;28;20040;-77
2022/07/21 10:50:58;;;;;;;16.52;14.70;;;20.70;99.90;;;;;;5108115;28;20104;-78
2022/07/21 10:53:23;;;;;;;19.40;14.00;;;22.40;99.90;;;;;;5105237;28;20032;-77
2022/07/21 10:55:54;;;;;;;15.48;13.88;;;20.90;99.90;;;;;;5103809;28;20035;-78
2022/07/21 10:58:23;;;;;;;21.17;15.88;;;20.90;99.90;;;;;;5105100;28;20089;-80
2022/07/21 11:01:00;;;;;;;18.13;14.15;;;20.90;99.90;;;;;;5105096;28;20043;-78
2022/07/21 11:03:34;;;;;;;16.75;14.82;;;20.90;99.90;;;;;;5104324;28;20039;-80
2022/07/21 11:06:05;;;;;;;17.48;15.15;;;21.10;99.90;;;;;;5086784;28;20036;-79
2022/07/21 11:08:36;;;;;;;15.40;13.70;;;20.90;99.90;;;;;;5078503;28;20047;-78
2022/07/21 11:11:18;;;;;;;17.88;15.40;;;21.10;99.90;;;;;;5094180;28;20058;-78
2022/07/21 11:14:20;;;;;;;15.65;13.73;;;21.70;99.90;;;;;;5093365;28;20117;-77
2022/07/21 11:16:56;;;;;;;14.80;12.77;;;21.10;99.90;;;;;;5093696;28;20036;-78
2022/07/21 11:19:40;;;;;;;16.33;13.00;;;21.30;99.90;;;;;;5110982;28;20040;-77
2022/07/21 11:22:17;;;;;;;13.55;11.85;;;21.50;99.90;;;;;;5090934;28;20032;-78
2022/07/21 11:25:04;;;;;;;15.80;12.52;;;21.70;99.90;;;;;;5094466;28;20118;-79
2022/07/21 11:27:33;;;;;;;18.40;13.45;;;21.50;99.90;;;;;;5075378;28;20260;-80
2022/07/21 11:30:00;;;;;;;12.30;10.77;;;21.40;99.90;;;;;;5095333;28;20452;-78
2022/07/21 11:32:26;;;;;;;17.00;14.73;;;22.30;99.90;;;;;;5104876;28;20063;-77
2022/07/21 11:34:53;;;;;;;16.27;13.18;;;21.70;99.90;;;;;;5094284;28;20028;-78
2022/07/21 11:37:52;;;;;;;16.45;13.38;;;21.70;99.90;;;;;;5097462;28;20184;-78
2022/07/21 11:40:20;;;;;;;18.05;15.13;;;21.90;99.90;;;;;;5111439;28;20122;-77
2022/07/21 11:42:50;;;;;;;16.50;14.13;;;22.50;99.90;;;;;;5118678;28;20045;-80
2022/07/21 11:45:17;;;;;;;15.82;14.07;;;22.00;99.90;;;;;;5120109;28;20031;-79
2022/07/21 11:47:43;;;;;;;19.08;15.40;;;22.30;99.90;;;;;;5120449;28;20039;-80
2022/07/21 11:50:11;;;;;;;14.30;11.25;;;22.70;99.90;;;;;;5113322;28;20081;-79
2022/07/21 11:52:38;;;;;;;11.23;8.80;;;21.60;99.90;;;;;;5095352;28;20099;-80
2022/07/21 11:55:06;;;;;;;8.00;7.20;;;21.40;99.90;;;;;;5093793;27;20080;-80
2022/07/21 11:57:32;;;;;;;9.43;8.45;;;21.40;99.90;;;;;;5106936;28;20036;-80
2022/07/21 11:59:58;;;;;;;8.98;8.07;;;21.20;99.90;;;;;;5089839;28;20404;-80
2022/07/21 12:02:27;;;;;;;9.75;8.75;;;21.00;99.90;;;;;;5097502;28;20114;-80
2022/07/21 12:04:57;;;;;;;12.38;11.10;;;21.10;99.90;;;;;;5105973;28;20061;-78
2022/07/21 12:07:41;;;;;;;8.95;8.05;;;21.30;99.90;;;;;;5107060;28;20046;-79
2022/07/21 12:10:21;;;;;;;9.20;8.30;;;21.00;99.90;;;;;;5126036;28;20039;-79
2022/07/21 12:12:49;;;;;;;10.60;8.20;;;21.40;99.90;;;;;;5105683;28;20040;-80
2022/07/21 12:15:27;;;;;;;8.80;7.95;;;20.20;99.90;;;;;;5090533;28;20027;-81
2022/07/21 12:17:58;;;;;;;8.23;6.65;;;23.40;99.90;;;;;;5091212;28;20036;-81
2022/07/21 12:20:33;;;;;;;7.60;6.45;;;21.30;99.90;;;;;;5089505;28;20035;-81
2022/07/21 12:23:01;;;;;;;4.85;3.97;;;21.40;99.90;;;;;;5124303;28;20043;-80
2022/07/21 12:25:54;;;;;;;4.25;3.30;;;22.00;99.90;;;;;;5108613;28;20032;-81
2022/07/21 12:28:19;;;;;;;4.95;3.20;;;22.20;99.90;;;;;;5101731;28;20077;-80
2022/07/21 12:30:50;;;;;;;6.43;4.10;;;20.90;99.90;;;;;;5092173;28;20043;-81
2022/07/21 12:33:21;;;;;;;6.35;4.80;;;21.10;99.90;;;;;;5108347;28;20035;-80
2022/07/21 12:36:04;;;;;;;5.85;5.30;;;21.30;99.90;;;;;;5122481;28;20098;-81